createdAt,value
2017-10-03T00:02:25.114Z,54.50
2017-10-03T00:04:59.751Z,54.50
2017-10-03T00:07:34.258Z,54.70
2017-10-03T00:10:15.234Z,54.50
2017-10-03T00:12:49.826Z,54.50
2017-10-03T00:15:24.306Z,54.40
2017-10-03T00:17:58.802Z,54.50
2017-10-03T00:20:33.408Z,54.60
2017-10-03T00:23:07.954Z,54.60
2017-10-03T00:25:42.473Z,54.70
2017-10-03T00:28:17.065Z,54.80
2017-10-03T00:30:51.518Z,54.80
2017-10-03T00:33:26.085Z,54.80
2017-10-03T00:36:00.490Z,54.90
2017-10-03T00:38:34.974Z,54.70
2017-10-03T00:41:09.593Z,54.70
2017-10-03T00:43:44.262Z,54.80
2017-10-03T00:46:18.941Z,54.90
2017-10-03T00:48:53.697Z,54.90
2017-10-03T00:51:28.306Z,54.80
2017-10-03T00:54:02.768Z,55.20
2017-10-03T00:56:37.105Z,55.20
2017-10-03T00:59:11.659Z,55.30
2017-10-03T01:01:46.251Z,55.40
2017-10-03T01:04:20.807Z,55.50
2017-10-03T01:06:55.343Z,55.50
2017-10-03T01:09:30.029Z,55.20
2017-10-03T01:12:04.541Z,55.10
2017-10-03T01:14:39.005Z,55.10
2017-10-03T01:17:13.578Z,55.20
2017-10-03T01:19:47.459Z,55.60
2017-10-03T01:22:22.120Z,56.10
2017-10-03T01:24:56.742Z,56.30
2017-10-03T01:27:31.202Z,56.20
2017-10-03T01:30:13.990Z,56.40
2017-10-03T01:32:48.458Z,56.30
2017-10-03T01:35:22.993Z,56.60
2017-10-03T01:38:05.710Z,56.70
2017-10-03T01:40:40.269Z,56.60
2017-10-03T01:43:14.875Z,56.50
2017-10-03T01:45:49.454Z,56.80
2017-10-03T01:48:24.031Z,57.10
2017-10-03T01:50:58.522Z,57.20
2017-10-03T01:53:33.171Z,57.10
2017-10-03T01:56:07.498Z,57.00
2017-10-03T01:58:42.173Z,56.80
2017-10-03T02:01:16.574Z,56.40
2017-10-03T02:03:51.149Z,56.40
2017-10-03T02:06:25.718Z,56.40
2017-10-03T02:09:00.350Z,56.60
2017-10-03T02:11:34.914Z,56.90
2017-10-03T02:14:09.431Z,56.80
2017-10-03T02:16:44.031Z,56.90
2017-10-03T02:19:18.646Z,56.80
2017-10-03T02:21:53.242Z,56.40
2017-10-03T02:24:27.865Z,56.80
2017-10-03T02:27:02.577Z,57.10
2017-10-03T02:29:37.174Z,57.50
2017-10-03T02:32:11.552Z,57.90
2017-10-03T02:34:46.428Z,58.30
2017-10-03T02:37:20.994Z,58.20
2017-10-03T02:39:55.533Z,58.40
2017-10-03T02:42:29.950Z,59.00
2017-10-03T02:45:13.674Z,59.60
2017-10-03T02:47:49.015Z,60.30
2017-10-03T02:50:23.586Z,60.20
2017-10-03T02:52:58.182Z,61.10
2017-10-03T02:55:32.679Z,61.80
2017-10-03T02:58:07.254Z,61.90
2017-10-03T03:00:41.867Z,62.20
2017-10-03T03:03:16.315Z,62.30
2017-10-03T03:05:50.617Z,62.60
2017-10-03T03:08:25.289Z,63.20
2017-10-03T03:10:59.822Z,63.20
2017-10-03T03:13:34.312Z,63.60
2017-10-03T03:16:08.831Z,64.10
2017-10-03T03:18:43.514Z,64.70
2017-10-03T03:21:18.149Z,64.90
2017-10-03T03:23:52.659Z,64.90
2017-10-03T03:26:27.177Z,65.30
2017-10-03T03:29:01.673Z,65.60
2017-10-03T03:31:36.275Z,65.60
2017-10-03T03:34:10.884Z,65.70
2017-10-03T03:36:45.370Z,66.40
2017-10-03T03:39:19.865Z,67.20
2017-10-03T03:41:54.354Z,67.50
2017-10-03T03:44:28.950Z,67.50
2017-10-03T03:47:03.542Z,67.30
2017-10-03T03:49:38.126Z,67.50
2017-10-03T03:52:12.662Z,67.60
2017-10-03T03:54:46.938Z,67.50
2017-10-03T03:57:21.537Z,67.90
2017-10-03T03:59:56.178Z,68.10
2017-10-03T04:02:31.007Z,68.20
2017-10-03T04:05:14.126Z,68.70
2017-10-03T04:07:48.686Z,68.80
2017-10-03T04:10:23.234Z,69.70
2017-10-03T04:12:57.806Z,70.20
2017-10-03T04:15:32.403Z,70.60
2017-10-03T04:18:06.734Z,71.20
2017-10-03T04:20:41.655Z,71.00
2017-10-03T04:23:15.971Z,71.00
2017-10-03T04:25:50.740Z,71.30
2017-10-03T04:28:26.080Z,72.20
2017-10-03T04:31:00.710Z,72.20
2017-10-03T04:33:35.197Z,72.40
2017-10-03T04:36:09.782Z,72.30
2017-10-03T04:38:45.210Z,73.10
2017-10-03T04:41:19.788Z,73.20
2017-10-03T04:43:54.245Z,73.00
2017-10-03T04:46:28.815Z,72.80
2017-10-03T04:49:03.465Z,73.00
2017-10-03T04:51:37.874Z,73.40
2017-10-03T04:54:12.556Z,74.20
2017-10-03T04:56:47.069Z,74.50
2017-10-03T04:59:21.718Z,74.80
2017-10-03T05:01:56.362Z,74.70
2017-10-03T05:04:30.807Z,74.30
2017-10-03T05:07:05.406Z,74.30
2017-10-03T05:09:39.902Z,74.30
2017-10-03T05:12:14.462Z,74.20
2017-10-03T05:14:49.112Z,74.20
2017-10-03T05:17:23.529Z,73.70
2017-10-03T05:19:58.089Z,73.50
2017-10-03T05:22:32.613Z,73.90
2017-10-03T05:25:14.475Z,73.40
2017-10-03T05:27:48.971Z,73.70
2017-10-03T05:30:23.487Z,73.90
2017-10-03T05:32:58.013Z,73.90
2017-10-03T05:35:32.510Z,73.70
2017-10-03T05:38:07.183Z,73.70
2017-10-03T05:40:41.673Z,73.70
2017-10-03T05:43:16.316Z,74.00
2017-10-03T05:45:50.968Z,74.10
2017-10-03T05:48:26.245Z,74.20
2017-10-03T05:51:00.791Z,74.20
2017-10-03T05:53:35.412Z,73.70
2017-10-03T05:56:10.051Z,73.90
2017-10-03T05:58:44.573Z,73.80
2017-10-03T06:01:19.154Z,74.20
2017-10-03T06:03:53.829Z,74.00
2017-10-03T06:06:28.486Z,74.00
2017-10-03T06:09:02.942Z,73.90
2017-10-03T06:11:37.489Z,74.00
2017-10-03T06:14:12.130Z,73.90
2017-10-03T06:16:46.376Z,73.90
2017-10-03T06:19:20.965Z,73.90
2017-10-03T06:21:55.472Z,74.20
2017-10-03T06:24:29.942Z,74.20
2017-10-03T06:27:04.550Z,74.20
2017-10-03T06:29:39.262Z,74.10
2017-10-03T06:32:13.831Z,74.00
2017-10-03T06:34:48.524Z,74.10
2017-10-03T06:37:23.072Z,73.90
2017-10-03T06:39:57.655Z,74.10
2017-10-03T06:42:32.301Z,73.90
2017-10-03T06:45:14.965Z,73.90
2017-10-03T06:47:49.550Z,73.90
2017-10-03T06:50:24.154Z,74.00
2017-10-03T06:52:58.777Z,74.00
2017-10-03T06:55:33.506Z,74.00
2017-10-03T06:58:08.094Z,74.40
2017-10-03T07:00:42.621Z,74.60
2017-10-03T07:03:17.226Z,74.90
2017-10-03T07:05:52.703Z,74.80
2017-10-03T07:08:27.247Z,74.70
2017-10-03T07:11:01.882Z,74.90
2017-10-03T07:13:36.328Z,74.80
2017-10-03T07:16:11.743Z,75.10
2017-10-03T07:18:46.505Z,75.00
2017-10-03T07:21:20.922Z,75.20
2017-10-03T07:23:55.294Z,76.00
2017-10-03T07:26:29.861Z,76.90
2017-10-03T07:29:04.426Z,77.90
2017-10-03T07:31:39.035Z,78.40
2017-10-03T07:34:13.602Z,78.00
2017-10-03T07:36:48.201Z,77.80
2017-10-03T07:39:22.681Z,77.70
2017-10-03T07:41:57.193Z,77.00
2017-10-03T07:44:32.130Z,76.90
2017-10-03T07:47:06.645Z,76.70
2017-10-03T07:49:41.217Z,77.00
2017-10-03T07:52:15.686Z,76.00
2017-10-03T07:54:50.350Z,77.60
2017-10-03T07:57:24.730Z,77.10
2017-10-03T07:59:59.254Z,77.70
2017-10-03T08:02:33.778Z,77.70
2017-10-03T08:05:15.518Z,78.00
2017-10-03T08:07:50.082Z,77.30
2017-10-03T08:10:24.679Z,78.40
2017-10-03T08:12:59.234Z,78.40
2017-10-03T08:15:33.760Z,77.90
2017-10-03T08:18:08.458Z,77.70
2017-10-03T08:20:42.962Z,77.40
2017-10-03T08:23:18.412Z,77.90
2017-10-03T08:25:52.875Z,77.80
2017-10-03T08:28:27.395Z,78.00
2017-10-03T08:31:01.841Z,77.20
2017-10-03T08:33:36.410Z,76.40
2017-10-03T08:36:11.273Z,76.60
2017-10-03T08:38:45.752Z,78.40
2017-10-03T08:41:20.291Z,77.50
2017-10-03T08:43:54.774Z,76.90
2017-10-03T08:46:29.597Z,76.70
2017-10-03T08:49:04.194Z,76.70
2017-10-03T08:51:38.801Z,77.00
2017-10-03T08:54:14.044Z,76.50
2017-10-03T08:56:48.514Z,76.30
2017-10-03T08:59:23.122Z,76.00
2017-10-03T09:01:57.723Z,75.70
2017-10-03T09:04:32.420Z,75.60
2017-10-03T09:07:07.151Z,75.60
2017-10-03T09:09:41.691Z,75.70
2017-10-03T09:12:16.449Z,75.40
2017-10-03T09:14:50.758Z,75.60
2017-10-03T09:17:25.326Z,75.40
2017-10-03T09:19:59.646Z,75.80
2017-10-03T09:22:34.201Z,76.00
2017-10-03T09:25:14.121Z,76.10
2017-10-03T09:27:48.687Z,75.70
2017-10-03T09:30:23.273Z,75.30
2017-10-03T09:32:58.006Z,75.10
2017-10-03T09:35:32.599Z,74.70
2017-10-03T09:38:07.069Z,74.70
2017-10-03T09:40:41.750Z,74.70
2017-10-03T09:43:16.287Z,74.80
2017-10-03T09:45:50.795Z,74.80
2017-10-03T09:48:25.242Z,75.10
2017-10-03T09:51:00.651Z,74.40
2017-10-03T09:53:35.099Z,74.50
2017-10-03T09:56:09.622Z,74.40
2017-10-03T09:58:44.329Z,74.20
2017-10-03T10:01:18.951Z,74.10
2017-10-03T10:03:53.586Z,74.00
2017-10-03T10:06:28.142Z,74.20
2017-10-03T10:09:02.602Z,74.20
2017-10-03T10:11:37.323Z,74.10
2017-10-03T10:14:11.902Z,75.30
2017-10-03T10:16:46.557Z,76.00
2017-10-03T10:19:21.314Z,75.90
2017-10-03T10:21:55.911Z,74.80
2017-10-03T10:24:30.590Z,74.70
2017-10-03T10:27:05.172Z,74.40
2017-10-03T10:29:39.758Z,74.50
2017-10-03T10:32:14.546Z,74.70
2017-10-03T10:34:49.099Z,74.80
2017-10-03T10:37:24.284Z,74.30
2017-10-03T10:39:58.870Z,73.40
2017-10-03T10:42:33.377Z,73.00
2017-10-03T10:45:15.018Z,73.30
2017-10-03T10:47:49.486Z,73.10
2017-10-03T10:50:37.080Z,72.60
2017-10-03T10:53:11.599Z,73.70
2017-10-03T10:55:46.127Z,74.00
2017-10-03T10:58:20.714Z,75.00
2017-10-03T11:00:55.364Z,75.30
2017-10-03T11:03:29.947Z,75.00
2017-10-03T11:06:04.570Z,74.80
2017-10-03T11:08:39.259Z,74.80
2017-10-03T11:11:13.829Z,75.30
2017-10-03T11:13:48.293Z,75.90
2017-10-03T11:16:22.891Z,76.80
2017-10-03T11:18:57.571Z,77.00
2017-10-03T11:21:32.065Z,77.50
2017-10-03T11:24:17.742Z,77.90
2017-10-03T11:26:52.453Z,78.10
2017-10-03T11:29:27.114Z,78.50
2017-10-03T11:32:02.405Z,79.00
2017-10-03T11:34:36.902Z,79.00
2017-10-03T11:37:11.483Z,79.40
2017-10-03T11:39:46.880Z,79.30
2017-10-03T11:42:21.399Z,79.20
2017-10-03T11:44:55.910Z,78.80
2017-10-03T11:47:30.486Z,78.80
2017-10-03T11:52:45.771Z,78.90
2017-10-03T11:55:20.230Z,78.60
2017-10-03T11:57:55.047Z,78.80
2017-10-03T12:00:29.599Z,79.40
2017-10-03T12:03:04.071Z,79.40
2017-10-03T12:05:38.670Z,79.20
2017-10-03T12:08:13.322Z,80.00
2017-10-03T12:10:47.933Z,80.10
2017-10-03T12:13:22.462Z,80.10
2017-10-03T12:15:58.099Z,80.20
2017-10-03T12:18:32.712Z,84.00
2017-10-03T12:21:07.292Z,85.60
2017-10-03T12:23:42.678Z,86.90
2017-10-03T12:26:17.150Z,86.80
2017-10-03T12:28:51.839Z,86.80
2017-10-03T12:31:26.483Z,86.70
2017-10-03T12:34:00.910Z,85.80
2017-10-03T12:36:35.534Z,85.30
2017-10-03T12:39:10.130Z,84.10
2017-10-03T12:41:44.740Z,83.30
2017-10-03T12:44:19.370Z,83.30
2017-10-03T12:46:53.878Z,82.40
2017-10-03T12:49:28.412Z,82.10
2017-10-03T12:52:03.004Z,80.40
2017-10-03T12:54:37.614Z,79.30
2017-10-03T12:57:12.279Z,79.50
2017-10-03T12:59:46.902Z,77.80
2017-10-03T13:02:21.545Z,77.40
2017-10-03T13:04:55.979Z,77.50
2017-10-03T13:07:30.570Z,77.30
2017-10-03T13:10:14.049Z,76.70
2017-10-03T13:12:48.531Z,76.50
2017-10-03T13:15:23.031Z,76.00
2017-10-03T13:17:57.735Z,76.00
2017-10-03T13:20:32.243Z,76.40
2017-10-03T13:23:06.759Z,76.40
2017-10-03T13:25:41.255Z,75.00
2017-10-03T13:28:15.718Z,73.30
2017-10-03T13:30:50.282Z,72.40
2017-10-03T13:33:24.985Z,72.90
2017-10-03T13:35:59.547Z,72.10
2017-10-03T13:38:34.050Z,72.50
2017-10-03T13:41:08.614Z,70.60
2017-10-03T13:43:43.066Z,70.50
2017-10-03T13:46:17.681Z,69.90
2017-10-03T13:48:52.112Z,68.50
2017-10-03T13:51:26.715Z,68.40
2017-10-03T13:54:01.668Z,67.10
2017-10-03T13:56:35.986Z,66.80
2017-10-03T13:59:10.618Z,67.50
2017-10-03T14:01:45.186Z,68.30
2017-10-03T14:04:20.461Z,64.70
2017-10-03T14:06:55.031Z,64.70
2017-10-03T14:09:29.741Z,66.00
2017-10-03T14:12:04.245Z,65.50
2017-10-03T14:14:38.774Z,65.60
2017-10-03T14:17:13.277Z,66.10
2017-10-03T14:19:47.866Z,66.40
2017-10-03T14:22:22.459Z,67.40
2017-10-03T14:24:57.071Z,67.30
2017-10-03T14:27:32.424Z,67.10
2017-10-03T14:30:14.312Z,67.10
2017-10-03T14:32:48.922Z,67.60
2017-10-03T14:35:23.364Z,67.70
2017-10-03T14:37:57.868Z,67.60
2017-10-03T14:40:32.422Z,67.70
2017-10-03T14:43:07.054Z,68.60
2017-10-03T14:45:41.543Z,67.90
2017-10-03T14:48:16.143Z,68.40
2017-10-03T14:50:50.731Z,67.90
2017-10-03T14:53:25.315Z,68.10
2017-10-03T14:55:59.804Z,68.30
2017-10-03T14:58:34.544Z,68.70
2017-10-03T15:01:09.082Z,69.50
2017-10-03T15:03:43.713Z,70.00
2017-10-03T15:06:18.247Z,71.50
2017-10-03T15:08:52.658Z,72.00
2017-10-03T15:11:27.277Z,73.50
2017-10-03T15:14:01.880Z,72.20
2017-10-03T15:16:36.384Z,72.20
2017-10-03T15:19:10.867Z,73.60
2017-10-03T15:21:45.642Z,72.30
2017-10-03T15:24:20.438Z,72.60
2017-10-03T15:26:55.671Z,71.80
2017-10-03T15:29:30.426Z,71.70
2017-10-03T15:32:05.035Z,71.40
2017-10-03T15:34:39.517Z,71.20
2017-10-03T15:37:14.048Z,71.30
2017-10-03T15:39:48.754Z,71.00
2017-10-03T15:42:23.347Z,70.60
2017-10-03T15:44:57.855Z,70.70
2017-10-03T15:47:32.406Z,70.60
2017-10-03T15:50:15.159Z,70.10
2017-10-03T15:52:49.730Z,69.70
2017-10-03T15:55:24.362Z,69.50
2017-10-03T15:57:58.890Z,69.70
2017-10-03T16:00:37.135Z,69.20
2017-10-03T16:03:12.518Z,69.20
2017-10-03T16:05:47.050Z,69.10
2017-10-03T16:08:21.837Z,69.20
2017-10-03T16:10:56.346Z,68.90
2017-10-03T16:13:30.836Z,69.40
2017-10-03T16:16:05.505Z,69.20
2017-10-03T16:18:39.731Z,69.30
2017-10-03T16:21:14.415Z,69.70
2017-10-03T16:23:48.746Z,70.00
2017-10-03T16:26:23.802Z,70.10
2017-10-03T16:28:58.394Z,70.00
2017-10-03T16:31:33.069Z,70.10
2017-10-03T16:34:07.646Z,70.40
2017-10-03T16:36:42.206Z,70.60
2017-10-03T16:39:16.677Z,71.10
2017-10-03T16:41:51.217Z,71.50
2017-10-03T16:44:25.728Z,71.50
2017-10-03T16:47:00.273Z,71.70
2017-10-03T16:49:35.490Z,72.30
2017-10-03T16:52:10.038Z,72.30
2017-10-03T16:54:44.812Z,72.60
2017-10-03T16:57:19.331Z,72.60
2017-10-03T16:59:53.898Z,72.60
2017-10-03T17:02:28.465Z,72.50
2017-10-03T17:07:43.915Z,72.00
2017-10-03T17:10:18.462Z,72.00
2017-10-03T17:12:53.883Z,71.80
2017-10-03T17:15:28.498Z,71.70
2017-10-03T17:18:02.958Z,71.70
2017-10-03T17:20:37.554Z,71.80
2017-10-03T17:23:12.214Z,71.90
2017-10-03T17:25:46.788Z,72.20
2017-10-03T17:28:21.349Z,72.10
2017-10-03T17:30:55.867Z,72.50
2017-10-03T17:33:30.699Z,72.70
2017-10-03T17:36:06.120Z,72.50
2017-10-03T17:38:40.794Z,72.50
2017-10-03T17:41:15.386Z,72.50
2017-10-03T17:43:50.613Z,72.50
2017-10-03T17:46:25.314Z,72.40
2017-10-03T17:49:00.007Z,72.40
2017-10-03T17:51:34.820Z,72.40
2017-10-03T17:54:09.431Z,72.30
2017-10-03T17:56:43.958Z,72.20
2017-10-03T17:59:18.410Z,72.20
2017-10-03T18:01:53.016Z,72.30
2017-10-03T18:04:27.514Z,72.20
2017-10-03T18:07:02.866Z,72.20
2017-10-03T18:09:37.308Z,72.10
2017-10-03T18:12:11.819Z,72.40
2017-10-03T18:14:48.242Z,72.60
2017-10-03T18:17:22.798Z,72.50
2017-10-03T18:19:57.341Z,72.50
2017-10-03T18:22:31.782Z,72.10
2017-10-03T18:25:14.532Z,72.10
2017-10-03T18:27:49.194Z,72.30
2017-10-03T18:30:23.710Z,72.00
2017-10-03T18:32:58.222Z,71.90
2017-10-03T18:35:32.754Z,72.10
2017-10-03T18:38:07.299Z,72.00
2017-10-03T18:40:41.825Z,71.80
2017-10-03T18:43:16.281Z,71.70
2017-10-03T18:45:50.963Z,71.40
2017-10-03T18:48:25.499Z,71.40
2017-10-03T18:51:00.102Z,70.60
2017-10-03T18:53:34.626Z,70.80
2017-10-03T18:56:09.159Z,70.60
2017-10-03T18:58:43.810Z,70.60
2017-10-03T19:01:18.410Z,70.40
2017-10-03T19:03:53.018Z,70.30
2017-10-03T19:06:27.549Z,70.60
2017-10-03T19:09:02.218Z,70.60
2017-10-03T19:11:36.714Z,70.40
2017-10-03T19:14:11.427Z,70.00
2017-10-03T19:16:46.098Z,70.10
2017-10-03T19:19:20.698Z,70.10
2017-10-03T19:21:55.146Z,69.80
2017-10-03T19:24:29.864Z,69.70
2017-10-03T19:27:04.026Z,69.20
2017-10-03T19:29:38.511Z,69.40
2017-10-03T19:32:13.846Z,69.60
2017-10-03T19:34:48.519Z,69.60
2017-10-03T19:37:23.201Z,69.60
2017-10-03T19:39:57.851Z,69.60
2017-10-03T19:42:32.482Z,69.90
2017-10-03T19:45:14.461Z,69.90
2017-10-03T19:47:49.154Z,70.00
2017-10-03T19:50:23.638Z,70.00
2017-10-03T19:52:58.915Z,69.60
2017-10-03T19:55:34.346Z,69.90
2017-10-03T19:58:08.790Z,70.00
2017-10-03T20:00:43.399Z,70.20
2017-10-03T20:03:17.967Z,70.10
2017-10-03T20:05:52.432Z,70.00
2017-10-03T20:08:27.065Z,70.10
2017-10-03T20:11:02.403Z,69.80
2017-10-03T20:13:37.066Z,69.80
2017-10-03T20:16:11.834Z,70.00
2017-10-03T20:18:46.323Z,70.00
2017-10-03T20:21:20.937Z,69.80
2017-10-03T20:23:55.490Z,70.00
2017-10-03T20:26:30.882Z,69.80
2017-10-03T20:29:05.310Z,69.80
2017-10-03T20:31:39.963Z,69.80
2017-10-03T20:34:14.599Z,69.60
2017-10-03T20:36:49.146Z,69.40
2017-10-03T20:39:23.683Z,69.40
2017-10-03T20:41:58.383Z,69.50
2017-10-03T20:44:32.958Z,69.40
2017-10-03T20:47:07.494Z,69.40
2017-10-03T20:49:42.290Z,69.50
2017-10-03T20:52:16.758Z,69.70
2017-10-03T20:54:51.246Z,69.50
2017-10-03T20:57:25.713Z,69.20
2017-10-03T21:00:00.485Z,69.50
2017-10-03T21:02:34.863Z,69.70
2017-10-03T21:05:15.178Z,70.00
2017-10-03T21:07:49.611Z,70.00
2017-10-03T21:10:24.246Z,70.30
2017-10-03T21:12:58.847Z,70.60
2017-10-03T21:15:33.294Z,70.70
2017-10-03T21:18:07.733Z,70.90
2017-10-03T21:20:42.358Z,71.00
2017-10-03T21:23:16.999Z,71.00
2017-10-03T21:25:51.578Z,70.90
2017-10-03T21:28:26.282Z,70.80
2017-10-03T21:31:00.837Z,70.60
2017-10-03T21:33:35.409Z,70.80
2017-10-03T21:36:10.077Z,70.70
2017-10-03T21:38:44.698Z,70.60
2017-10-03T21:41:19.082Z,70.60
2017-10-03T21:43:53.583Z,70.60
2017-10-03T21:46:27.786Z,70.40
2017-10-03T21:49:02.401Z,70.70
2017-10-03T21:51:37.748Z,70.70
2017-10-03T21:54:12.389Z,70.70
2017-10-03T21:56:46.952Z,70.60
2017-10-03T21:59:21.744Z,70.20
2017-10-03T22:01:56.396Z,70.10
2017-10-03T22:04:31.015Z,70.10
2017-10-03T22:07:05.582Z,70.10
2017-10-03T22:09:40.010Z,69.80
2017-10-03T22:12:14.582Z,69.60
2017-10-03T22:14:49.142Z,69.50
2017-10-03T22:17:23.729Z,69.00
2017-10-03T22:19:58.462Z,69.40
2017-10-03T22:22:33.146Z,69.30
2017-10-03T22:25:14.398Z,69.40
2017-10-03T22:27:48.959Z,69.40
2017-10-03T22:30:23.586Z,69.00
2017-10-03T22:32:57.669Z,69.20
2017-10-03T22:35:32.339Z,69.30
2017-10-03T22:38:06.771Z,69.20
2017-10-03T22:40:41.258Z,69.00
2017-10-03T22:43:15.891Z,68.90
2017-10-03T22:45:50.445Z,68.80
2017-10-03T22:48:24.958Z,68.50
2017-10-03T22:51:05.113Z,68.60
2017-10-03T22:53:39.642Z,68.60
2017-10-03T22:56:14.142Z,68.90
2017-10-03T22:58:48.758Z,68.70
2017-10-03T23:01:23.356Z,68.40
2017-10-03T23:03:58.864Z,68.30
2017-10-03T23:06:34.274Z,68.50
2017-10-03T23:09:08.758Z,68.50
2017-10-03T23:11:43.382Z,68.40
2017-10-03T23:14:18.025Z,68.50
2017-10-03T23:16:52.581Z,68.70
2017-10-03T23:19:27.815Z,68.90
2017-10-03T23:22:02.329Z,68.80
2017-10-03T23:24:37.043Z,69.00
2017-10-03T23:27:11.458Z,68.80
2017-10-03T23:29:46.070Z,68.90
2017-10-03T23:32:20.633Z,68.80
2017-10-03T23:34:55.335Z,68.70
2017-10-03T23:37:29.917Z,69.10
2017-10-03T23:40:13.235Z,69.60
2017-10-03T23:42:47.653Z,69.60
2017-10-03T23:45:22.209Z,69.90
2017-10-03T23:47:56.765Z,69.70
2017-10-03T23:50:31.342Z,69.50
2017-10-03T23:53:05.786Z,69.30
2017-10-03T23:55:40.422Z,69.40
2017-10-03T23:58:15.083Z,69.30
